Time;durP1;ratioP1;P1;durP2;ratioP2;P2;SDS_P1;SDS_P2;PMS_P1;PMS_P2;Temp;Humidity;BMP_temperature;BMP_pressure;BME280_temperature;BME280_humidity;BME280_pressure;Samples;Min_cycle;Max_cycle;Signal;HPM_P1;HPM_P2
2021/12/17 00:04:54;;;;;;;1105.37;992.10;;;8.60;99.90;;;;;;4992369;28;20450;-84
2021/12/17 00:07:24;;;;;;;1111.57;998.33;;;8.60;99.90;;;;;;5025400;28;20504;-84
2021/12/17 00:09:51;;;;;;;1106.77;993.40;;;8.60;99.90;;;;;;5033962;28;20453;-83
2021/12/17 00:12:22;;;;;;;1105.83;992.97;;;8.60;99.90;;;;;;5033095;28;20448;-84
2021/12/17 00:14:50;;;;;;;1091.80;982.47;;;8.70;99.90;;;;;;5032986;28;20475;-83
2021/12/17 00:17:24;;;;;;;1089.57;978.87;;;8.70;99.90;;;;;;5037091;28;20479;-84
2021/12/17 00:20:10;;;;;;;1089.83;981.33;;;8.60;99.90;;;;;;5039177;28;20571;-83
2021/12/17 00:50:26;;;;;;;1083.53;975.43;;;8.60;99.90;;;;;;5038701;28;21015;-83
2021/12/17 00:52:53;;;;;;;1088.20;979.37;;;8.60;99.90;;;;;;5039105;28;20448;-84
2021/12/17 00:55:21;;;;;;;1079.93;972.30;;;8.70;99.90;;;;;;5039268;28;20839;-83
2021/12/17 00:57:48;;;;;;;1081.60;975.43;;;8.60;99.90;;;;;;5038157;28;21019;-83
2021/12/17 01:00:18;;;;;;;1080.47;972.67;;;8.60;99.90;;;;;;5038511;28;20459;-83
2021/12/17 01:02:45;;;;;;;1081.67;975.40;;;8.60;99.90;;;;;;5038712;28;20735;-84
2021/12/17 01:05:16;;;;;;;1097.07;990.00;;;8.60;99.90;;;;;;5037867;28;20522;-83
2021/12/17 01:07:47;;;;;;;1110.37;999.90;;;8.60;99.90;;;;;;5039030;28;20471;-84
2021/12/17 01:10:18;;;;;;;1097.47;988.07;;;8.60;99.90;;;;;;5039177;28;20479;-84
2021/12/17 01:12:47;;;;;;;1089.77;981.27;;;8.60;99.90;;;;;;5040359;28;20479;-83
2021/12/17 01:15:16;;;;;;;1098.90;988.50;;;8.70;99.90;;;;;;5038650;28;20551;-83
2021/12/17 01:17:44;;;;;;;1100.93;991.30;;;8.60;99.90;;;;;;5038028;28;20476;-84
2021/12/17 01:20:34;;;;;;;1099.97;990.40;;;8.70;99.90;;;;;;5038505;28;20495;-84
2021/12/17 01:23:15;;;;;;;1090.10;981.93;;;8.60;99.90;;;;;;5037517;28;20464;-83
2021/12/17 01:35:19;;;;;;;1089.17;982.27;;;8.60;99.90;;;;;;5037906;28;20521;-83
2021/12/17 01:37:19;;;;;;;1103.13;994.27;;;8.60;99.90;;;;;;5038660;28;21039;-82
2021/12/17 01:42:27;;;;;;;1086.70;979.80;;;8.60;99.90;;;;;;5038210;28;20515;-81
2021/12/17 01:44:55;;;;;;;1090.00;980.60;;;8.60;99.90;;;;;;5037856;28;20886;-84
2021/12/17 01:47:22;;;;;;;1094.17;985.10;;;8.60;99.90;;;;;;5038431;28;20483;-83
2021/12/17 02:00:56;;;;;;;1098.83;988.70;;;8.70;99.90;;;;;;5035461;28;21082;-83
2021/12/17 02:03:23;;;;;;;1109.20;999.80;;;8.60;99.90;;;;;;5034738;28;20452;-83
2021/12/17 02:05:50;;;;;;;1112.30;999.90;;;8.70;99.90;;;;;;5036397;28;20456;-83
2021/12/17 02:08:16;;;;;;;1121.70;999.90;;;8.70;99.90;;;;;;5038033;28;20483;-84
2021/12/17 02:32:48;;;;;;;1112.20;999.90;;;8.70;99.90;;;;;;5036005;28;20455;-83
2021/12/17 02:35:29;;;;;;;1104.20;999.53;;;8.60;99.90;;;;;;5035354;28;20482;-83
2021/12/17 02:37:58;;;;;;;1104.10;996.30;;;8.60;99.90;;;;;;5035752;28;20495;-83
2021/12/17 02:45:54;;;;;;;1088.70;980.90;;;8.70;99.90;;;;;;5036676;28;20563;-84
2021/12/17 02:48:22;;;;;;;1097.07;991.07;;;8.60;99.90;;;;;;5036525;28;20479;-84
2021/12/17 02:50:54;;;;;;;1093.30;985.47;;;8.60;99.90;;;;;;5036416;28;20460;-83
2021/12/17 02:53:24;;;;;;;1087.07;981.03;;;8.60;99.90;;;;;;5036498;28;20491;-83
2021/12/17 02:55:54;;;;;;;1094.33;987.97;;;8.60;99.90;;;;;;5036750;28;20448;-83
2021/12/17 02:58:26;;;;;;;1092.80;987.97;;;8.60;99.90;;;;;;5036870;28;20480;-83
2021/12/17 03:00:54;;;;;;;1108.43;999.90;;;8.70;99.90;;;;;;5036950;28;20460;-84
2021/12/17 03:03:25;;;;;;;1119.03;999.90;;;8.60;99.90;;;;;;5037449;28;20452;-84
2021/12/17 03:05:52;;;;;;;1115.40;999.90;;;8.60;99.90;;;;;;5036192;28;20461;-84
2021/12/17 03:08:22;;;;;;;1117.97;999.90;;;8.60;99.90;;;;;;5035882;28;20507;-83
2021/12/17 03:10:51;;;;;;;1095.47;988.73;;;8.50;99.90;;;;;;5036144;28;20491;-83
2021/12/17 03:13:21;;;;;;;1096.43;990.77;;;8.60;99.90;;;;;;5035973;28;20524;-83
2021/12/17 03:15:52;;;;;;;1096.97;990.30;;;8.70;99.90;;;;;;5035167;28;20456;-83
2021/12/17 03:23:49;;;;;;;1083.87;981.47;;;8.50;99.90;;;;;;5036634;28;20443;-84
2021/12/17 03:26:18;;;;;;;1086.33;981.70;;;8.60;99.90;;;;;;5036425;28;20467;-84
2021/12/17 03:28:47;;;;;;;1092.93;989.00;;;8.60;99.90;;;;;;5036094;28;20452;-83
2021/12/17 03:31:16;;;;;;;1081.43;977.80;;;8.60;99.90;;;;;;5035156;28;20550;-83
2021/12/17 03:33:44;;;;;;;1075.87;972.27;;;8.60;99.90;;;;;;5034981;28;20456;-83
2021/12/17 03:36:15;;;;;;;1075.37;972.23;;;8.60;99.90;;;;;;5034674;28;20455;-83
2021/12/17 03:38:43;;;;;;;1071.53;967.60;;;8.50;99.90;;;;;;5035401;28;20484;-84
2021/12/17 03:41:21;;;;;;;1078.80;972.07;;;8.50;99.90;;;;;;5034723;28;20460;-83
2021/12/17 03:43:53;;;;;;;1077.97;972.87;;;8.40;99.90;;;;;;5034882;28;20456;-83
2021/12/17 03:46:22;;;;;;;1084.73;977.33;;;8.50;99.90;;;;;;5034945;28;20459;-83
2021/12/17 03:48:49;;;;;;;1082.27;976.00;;;8.60;99.90;;;;;;5034883;28;20456;-84
2021/12/17 03:51:18;;;;;;;1078.50;974.87;;;8.50;99.90;;;;;;5033931;28;20452;-83
2021/12/17 03:53:48;;;;;;;1081.73;974.67;;;8.50;99.90;;;;;;5034414;28;20464;-83
2021/12/17 03:56:15;;;;;;;1083.37;975.97;;;8.50;99.90;;;;;;5033958;28;20456;-83
2021/12/17 03:58:42;;;;;;;1082.53;976.80;;;8.50;99.90;;;;;;5034618;28;20465;-84
2021/12/17 04:01:11;;;;;;;1086.07;979.47;;;8.60;99.90;;;;;;5034741;28;20467;-84
2021/12/17 04:03:38;;;;;;;1084.90;977.83;;;8.60;99.90;;;;;;5035053;28;20936;-83
2021/12/17 04:06:05;;;;;;;1085.27;977.60;;;8.40;99.90;;;;;;5033955;28;20561;-83
2021/12/17 04:08:35;;;;;;;1088.07;976.80;;;8.50;99.90;;;;;;5033989;28;20572;-83
2021/12/17 04:11:05;;;;;;;1087.00;978.70;;;8.40;99.90;;;;;;5035249;28;20458;-84
2021/12/17 04:13:35;;;;;;;1084.93;977.20;;;8.30;99.90;;;;;;5035043;28;20474;-84
2021/12/17 04:16:05;;;;;;;1089.07;977.20;;;8.40;99.90;;;;;;5034111;28;20453;-84
2021/12/17 04:18:35;;;;;;;1088.50;976.90;;;8.40;99.90;;;;;;5034607;28;20479;-83
2021/12/17 04:21:13;;;;;;;1084.10;975.43;;;8.40;99.90;;;;;;5034757;28;20506;-83
2021/12/17 04:23:41;;;;;;;1082.87;974.50;;;8.30;99.90;;;;;;5034290;28;20534;-83
2021/12/17 04:26:07;;;;;;;1087.13;979.47;;;8.40;99.90;;;;;;5034491;28;20456;-83
2021/12/17 04:28:41;;;;;;;1092.83;984.47;;;8.40;99.90;;;;;;5034655;28;20475;-83
2021/12/17 04:31:08;;;;;;;1094.23;983.97;;;8.40;99.90;;;;;;5034728;28;20463;-83
2021/12/17 04:33:38;;;;;;;1095.77;988.13;;;8.40;99.90;;;;;;5035592;28;20444;-84
2021/12/17 04:36:05;;;;;;;1101.43;991.33;;;8.40;99.90;;;;;;5034251;28;21043;-83
2021/12/17 04:38:32;;;;;;;1100.90;987.60;;;8.40;99.90;;;;;;5035003;28;20484;-84
2021/12/17 04:41:35;;;;;;;1097.77;984.87;;;8.40;99.90;;;;;;5034464;28;20563;-84
2021/12/17 04:44:01;;;;;;;1097.60;986.63;;;8.50;99.90;;;;;;5035091;28;20884;-84
2021/12/17 04:46:33;;;;;;;1115.07;999.90;;;8.60;99.90;;;;;;5035992;28;20543;-84
2021/12/17 04:57:27;;;;;;;1105.07;990.70;;;8.50;99.90;;;;;;5034498;28;20451;-83
2021/12/17 04:59:56;;;;;;;1111.67;998.87;;;8.50;99.90;;;;;;5034724;28;20500;-83
2021/12/17 05:02:23;;;;;;;1102.77;990.57;;;8.40;99.90;;;;;;5036382;28;20452;-83
2021/12/17 05:04:54;;;;;;;1089.10;978.70;;;8.30;99.90;;;;;;5037696;28;20999;-83
2021/12/17 05:07:23;;;;;;;1083.60;972.73;;;8.30;99.90;;;;;;5037746;28;20475;-83
2021/12/17 05:09:56;;;;;;;1093.37;982.23;;;8.40;99.90;;;;;;5040268;28;21032;-83
2021/12/17 05:20:45;;;;;;;1080.33;966.37;;;8.30;99.90;;;;;;5035760;28;20476;-84
2021/12/17 05:23:12;;;;;;;1080.23;966.00;;;8.40;99.90;;;;;;5035467;28;20944;-84
2021/12/17 05:25:39;;;;;;;1079.83;964.20;;;8.30;99.90;;;;;;5034895;28;20460;-83
2021/12/17 05:28:06;;;;;;;1073.33;957.87;;;8.40;99.90;;;;;;5034945;28;21023;-83
2021/12/17 05:30:34;;;;;;;1066.33;953.27;;;8.30;99.90;;;;;;5035289;28;20801;-83
2021/12/17 05:33:02;;;;;;;1069.67;955.43;;;8.30;99.90;;;;;;5035296;28;20460;-83
2021/12/17 05:35:29;;;;;;;1071.13;955.57;;;8.30;99.90;;;;;;5034938;28;20452;-84
2021/12/17 05:37:57;;;;;;;1053.73;939.10;;;8.40;99.90;;;;;;5034860;28;20570;-84
2021/12/17 05:40:23;;;;;;;1068.57;946.57;;;8.40;99.90;;;;;;5035052;28;20472;-83
2021/12/17 05:42:55;;;;;;;1063.60;946.80;;;8.40;99.90;;;;;;5035287;28;20483;-84
2021/12/17 05:45:32;;;;;;;1061.90;945.90;;;8.30;99.90;;;;;;5034977;28;20448;-83
2021/12/17 05:47:59;;;;;;;1081.13;932.47;;;8.30;99.90;;;;;;5035122;28;20480;-83
2021/12/17 05:50:26;;;;;;;1053.40;938.40;;;8.30;99.90;;;;;;5035541;28;21003;-84
2021/12/17 05:52:52;;;;;;;1076.30;944.43;;;8.40;99.90;;;;;;5035756;28;20457;-83
2021/12/17 05:55:21;;;;;;;1112.73;945.80;;;8.30;99.90;;;;;;5034541;28;20459;-83
2021/12/17 05:57:47;;;;;;;1070.10;950.40;;;8.30;99.90;;;;;;5034823;28;20476;-84
2021/12/17 06:00:16;;;;;;;1077.93;962.67;;;8.30;99.90;;;;;;5034154;28;21007;-83
2021/12/17 06:02:43;;;;;;;1065.17;950.47;;;8.30;99.90;;;;;;5034597;28;20479;-83
2021/12/17 06:05:09;;;;;;;1074.13;950.03;;;8.30;99.90;;;;;;5034065;28;20463;-83
2021/12/17 06:07:36;;;;;;;1075.00;945.57;;;8.30;99.90;;;;;;5034448;28;20549;-83
2021/12/17 06:10:07;;;;;;;1132.80;954.83;;;8.30;99.90;;;;;;5034260;28;20452;-83
2021/12/17 06:12:36;;;;;;;1120.23;954.20;;;8.30;99.90;;;;;;5034670;28;20460;-83
2021/12/17 06:15:04;;;;;;;1176.70;930.57;;;8.30;99.90;;;;;;5033567;28;20463;-83
2021/12/17 06:17:31;;;;;;;1055.97;935.80;;;8.20;99.90;;;;;;5035402;28;20476;-83
2021/12/17 06:19:58;;;;;;;1123.30;934.07;;;8.30;99.90;;;;;;5035232;28;20484;-83
2021/12/17 06:22:25;;;;;;;1104.77;934.37;;;8.30;99.90;;;;;;5035304;28;20527;-83
2021/12/17 06:24:52;;;;;;;1114.30;941.70;;;8.30;99.90;;;;;;5035524;28;20456;-83
2021/12/17 06:27:23;;;;;;;1152.90;943.13;;;8.30;99.90;;;;;;5033451;28;20484;-84
2021/12/17 06:29:52;;;;;;;1194.83;943.83;;;8.30;99.90;;;;;;5033684;28;20502;-82
2021/12/17 06:32:21;;;;;;;1108.17;944.90;;;8.40;99.90;;;;;;5033885;28;20531;-83
2021/12/17 06:34:48;;;;;;;1100.97;952.53;;;8.30;99.90;;;;;;5033627;28;20456;-83
2021/12/17 06:37:16;;;;;;;1159.13;933.43;;;8.30;99.90;;;;;;5033713;28;20487;-83
2021/12/17 06:39:43;;;;;;;1173.10;936.97;;;8.30;99.90;;;;;;5034177;28;20519;-83
2021/12/17 06:42:10;;;;;;;1183.67;955.70;;;8.30;99.90;;;;;;5034521;28;20463;-82
2021/12/17 06:44:37;;;;;;;1230.40;949.40;;;8.40;99.90;;;;;;5035529;28;20547;-83
2021/12/17 06:47:10;;;;;;;1197.97;929.30;;;8.40;99.90;;;;;;5035304;28;20476;-83
2021/12/17 06:49:50;;;;;;;1220.17;934.57;;;8.40;99.90;;;;;;5035737;28;20819;-82
2021/12/17 06:55:17;;;;;;;1165.30;936.10;;;8.40;99.90;;;;;;5035113;28;20809;-81
2021/12/17 06:58:32;;;;;;;1340.07;954.73;;;8.30;99.90;;;;;;5036823;28;20480;-83
2021/12/17 07:01:05;;;;;;;1364.07;951.07;;;8.40;99.90;;;;;;5036850;28;20512;-83
2021/12/17 07:06:29;;;;;;;1335.37;949.80;;;8.40;99.90;;;;;;5008075;28;20811;-84
2021/12/17 07:17:08;;;;;;;1453.00;948.13;;;8.40;99.90;;;;;;5036267;28;21038;-83
2021/12/17 07:17:34;;;;;;;1392.60;930.60;;;8.40;99.90;;;;;;5035280;28;20459;-83
2021/12/17 07:23:03;;;;;;;1542.50;933.53;;;8.40;99.90;;;;;;5002062;28;20467;-82
2021/12/17 07:28:58;;;;;;;1483.27;927.70;;;8.40;99.90;;;;;;4978381;28;21055;-83
2021/12/17 07:34:14;;;;;;;1499.30;945.07;;;8.40;99.90;;;;;;5029047;28;20443;-83
2021/12/17 07:36:56;;;;;;;1468.73;944.17;;;8.50;99.90;;;;;;5034072;28;21105;-83
2021/12/17 07:39:22;;;;;;;1488.10;934.57;;;8.50;99.90;;;;;;5035497;28;20448;-83
2021/12/17 07:41:50;;;;;;;1427.83;937.57;;;8.50;99.90;;;;;;5034740;28;21037;-83
2021/12/17 07:44:17;;;;;;;1343.97;929.53;;;8.40;99.90;;;;;;5034376;28;20456;-83
2021/12/17 07:46:47;;;;;;;1379.60;919.60;;;8.50;99.90;;;;;;5034330;28;20471;-83
2021/12/17 07:49:13;;;;;;;1373.10;933.77;;;8.50;99.90;;;;;;5034913;28;20945;-83
2021/12/17 07:51:43;;;;;;;1408.37;929.17;;;8.40;99.90;;;;;;5033614;28;20459;-82
2021/12/17 07:54:10;;;;;;;1397.53;927.40;;;8.50;99.90;;;;;;5034427;28;20456;-83
2021/12/17 07:56:38;;;;;;;1307.27;927.23;;;8.40;99.90;;;;;;5034077;28;20452;-83
2021/12/17 07:59:06;;;;;;;1346.67;922.87;;;8.50;99.90;;;;;;5034904;28;20547;-83
2021/12/17 08:01:35;;;;;;;1350.47;926.37;;;8.50;99.90;;;;;;5034601;28;20525;-83
2021/12/17 08:04:01;;;;;;;1377.13;919.03;;;8.40;99.90;;;;;;5036143;28;20912;-84
2021/12/17 08:06:28;;;;;;;1381.20;914.97;;;8.50;99.90;;;;;;5036433;28;20459;-84
2021/12/17 08:08:59;;;;;;;1331.40;909.40;;;8.50;99.90;;;;;;5035757;28;20452;-84
2021/12/17 08:11:26;;;;;;;1299.67;910.37;;;8.50;99.90;;;;;;5039625;28;20543;-84
2021/12/17 08:13:54;;;;;;;1261.43;900.33;;;8.50;99.90;;;;;;5040751;28;20468;-84
2021/12/17 08:16:33;;;;;;;1254.83;900.33;;;8.50;99.90;;;;;;5036333;28;20452;-82
2021/12/17 08:24:54;;;;;;;1261.70;901.90;;;8.50;99.90;;;;;;5033544;28;20459;-83
2021/12/17 08:27:32;;;;;;;1244.47;894.23;;;8.50;99.90;;;;;;5034819;28;20480;-83
2021/12/17 08:32:45;;;;;;;1258.63;901.23;;;8.50;99.90;;;;;;5036111;28;20447;-83
2021/12/17 08:35:11;;;;;;;1347.93;896.27;;;8.60;99.90;;;;;;5036378;28;20452;-82
2021/12/17 08:37:39;;;;;;;1271.17;897.93;;;8.50;99.90;;;;;;5038229;28;20483;-83
2021/12/17 08:40:09;;;;;;;1337.00;898.33;;;8.50;99.90;;;;;;5038887;28;20479;-83
2021/12/17 08:42:36;;;;;;;1338.53;889.87;;;8.50;99.90;;;;;;5040595;28;20865;-83
2021/12/17 08:45:03;;;;;;;1507.70;887.97;;;8.50;99.90;;;;;;5040639;28;20518;-85
2021/12/17 08:47:30;;;;;;;1449.87;889.67;;;8.50;99.90;;;;;;5041191;28;20495;-83
2021/12/17 08:50:04;;;;;;;1486.80;902.10;;;8.50;99.90;;;;;;5039710;28;20464;-84
2021/12/17 08:52:30;;;;;;;1421.77;910.33;;;8.40;99.90;;;;;;5040374;28;20460;-84
2021/12/17 08:54:57;;;;;;;1409.13;900.50;;;8.50;99.90;;;;;;5039318;28;20452;-82
2021/12/17 08:57:25;;;;;;;1387.60;889.47;;;8.50;99.90;;;;;;5040366;28;20995;-83
2021/12/17 08:59:55;;;;;;;1394.53;899.63;;;8.50;99.90;;;;;;5040559;28;20475;-83
2021/12/17 09:02:24;;;;;;;1309.33;899.17;;;8.50;99.90;;;;;;5040722;28;20448;-83
2021/12/17 09:04:53;;;;;;;1267.53;894.87;;;8.60;99.90;;;;;;5041072;28;20506;-84
2021/12/17 09:07:19;;;;;;;1344.97;885.00;;;8.50;99.90;;;;;;5040804;28;20983;-83
2021/12/17 09:09:47;;;;;;;1210.03;882.10;;;8.50;99.90;;;;;;5040778;28;20927;-83
2021/12/17 09:12:14;;;;;;;1184.50;883.10;;;8.50;99.90;;;;;;5040520;28;20984;-83
2021/12/17 09:14:47;;;;;;;1279.60;905.33;;;8.40;99.90;;;;;;5041046;28;20456;-83
2021/12/17 09:17:13;;;;;;;1242.97;904.90;;;8.40;99.90;;;;;;5040229;28;20889;-83
2021/12/17 09:19:40;;;;;;;1303.37;880.43;;;8.40;99.90;;;;;;5040328;28;20470;-83
2021/12/17 09:22:09;;;;;;;1234.20;896.80;;;8.40;99.90;;;;;;5040363;28;20484;-83
2021/12/17 09:24:35;;;;;;;1231.70;910.90;;;8.50;99.90;;;;;;5040431;28;20463;-83
2021/12/17 09:27:02;;;;;;;1143.27;914.20;;;8.40;99.90;;;;;;5040183;28;20472;-84
2021/12/17 09:29:29;;;;;;;1286.17;915.83;;;8.50;99.90;;;;;;5039730;28;20444;-83
2021/12/17 09:31:57;;;;;;;1279.93;912.70;;;8.50;99.90;;;;;;5040065;28;20451;-83
2021/12/17 09:34:24;;;;;;;1308.40;909.30;;;8.50;99.90;;;;;;5040149;28;20456;-83
2021/12/17 09:36:51;;;;;;;1244.33;908.40;;;8.50;99.90;;;;;;5039818;28;20992;-83
2021/12/17 09:39:19;;;;;;;1279.63;898.87;;;8.50;99.90;;;;;;5040420;28;20459;-83
2021/12/17 09:41:50;;;;;;;1298.10;911.07;;;8.50;99.90;;;;;;5040073;28;20535;-83
2021/12/17 09:44:19;;;;;;;1350.40;910.00;;;8.50;99.90;;;;;;5039054;28;20550;-83
2021/12/17 09:46:49;;;;;;;1312.70;892.57;;;8.60;99.90;;;;;;5038372;28;20829;-82
2021/12/17 09:49:21;;;;;;;1311.13;893.23;;;8.60;99.90;;;;;;5038765;28;20458;-83
2021/12/17 09:51:52;;;;;;;1348.70;904.67;;;8.60;99.90;;;;;;5039139;28;20452;-83
2021/12/17 09:54:19;;;;;;;1280.60;911.23;;;8.70;99.90;;;;;;5039100;28;20480;-82
2021/12/17 09:56:47;;;;;;;1282.80;906.47;;;8.70;99.90;;;;;;5036972;28;20478;-83
2021/12/17 09:59:15;;;;;;;1289.53;896.10;;;8.60;99.90;;;;;;5037420;28;20453;-83
2021/12/17 10:01:43;;;;;;;1240.20;904.87;;;8.70;99.90;;;;;;5038603;28;20860;-83
2021/12/17 10:04:15;;;;;;;1224.80;901.20;;;8.70;99.90;;;;;;5037262;28;20510;-83
2021/12/17 10:06:44;;;;;;;1204.47;902.93;;;8.80;99.90;;;;;;5037581;28;20464;-83
2021/12/17 10:09:11;;;;;;;1221.33;910.40;;;8.80;99.90;;;;;;5038392;28;20468;-84
2021/12/17 10:11:38;;;;;;;1244.10;904.83;;;8.80;99.90;;;;;;5038311;28;20455;-83
2021/12/17 10:14:17;;;;;;;1171.30;906.10;;;8.80;99.90;;;;;;5038367;28;20479;-84
2021/12/17 10:16:46;;;;;;;1251.87;899.53;;;8.80;99.90;;;;;;5038015;28;20472;-84
2021/12/17 10:19:13;;;;;;;1230.63;896.20;;;8.90;99.90;;;;;;5039784;28;20456;-84
2021/12/17 10:21:47;;;;;;;1247.73;895.93;;;8.90;99.90;;;;;;5039491;28;20479;-84
2021/12/17 10:24:24;;;;;;;1243.17;898.07;;;9.00;99.90;;;;;;5039594;28;20484;-84
2021/12/17 10:26:51;;;;;;;1218.83;906.23;;;8.90;99.90;;;;;;5038179;28;20481;-83
2021/12/17 10:29:22;;;;;;;1189.63;886.37;;;9.10;99.90;;;;;;5037854;28;20536;-84
2021/12/17 10:31:57;;;;;;;1128.33;893.40;;;9.10;99.90;;;;;;5039649;28;20452;-83
2021/12/17 10:34:25;;;;;;;1159.57;899.97;;;9.10;99.90;;;;;;5042285;28;20451;-84
2021/12/17 10:36:53;;;;;;;1114.63;902.70;;;9.00;99.90;;;;;;5041470;28;20574;-85
2021/12/17 10:39:25;;;;;;;1111.87;897.97;;;9.20;99.90;;;;;;5041317;28;20535;-85
2021/12/17 10:41:54;;;;;;;1111.47;905.97;;;9.00;99.90;;;;;;5042360;28;20472;-83
2021/12/17 10:44:22;;;;;;;1152.37;908.17;;;9.00;99.90;;;;;;5041983;28;20455;-84
2021/12/17 10:47:08;;;;;;;1128.37;907.77;;;9.00;99.90;;;;;;5041691;28;20475;-83
2021/12/17 10:49:35;;;;;;;1135.40;903.27;;;9.00;99.90;;;;;;5042217;28;20440;-83
2021/12/17 10:52:15;;;;;;;1130.87;899.53;;;9.00;99.90;;;;;;5042112;28;20452;-83
2021/12/17 10:54:44;;;;;;;1173.00;895.03;;;9.00;99.90;;;;;;5041283;28;20546;-84
2021/12/17 10:57:11;;;;;;;1164.93;898.67;;;9.10;99.90;;;;;;5040244;28;20551;-84
2021/12/17 11:00:17;;;;;;;1172.17;902.80;;;9.00;99.90;;;;;;5932668;22;20456;-84
2021/12/17 11:02:49;;;;;;;1159.90;899.20;;;9.00;99.90;;;;;;5038859;28;20901;-84
2021/12/17 11:05:17;;;;;;;1200.27;910.07;;;9.00;99.90;;;;;;5037664;28;20991;-83
2021/12/17 11:07:47;;;;;;;1133.27;896.17;;;9.00;99.90;;;;;;5039655;28;20453;-85
2021/12/17 11:10:15;;;;;;;1135.47;914.73;;;9.10;99.90;;;;;;5037797;28;21050;-83
2021/12/17 11:12:44;;;;;;;1141.60;905.07;;;9.10;99.90;;;;;;5039433;28;20448;-83
2021/12/17 11:15:21;;;;;;;1163.90;903.50;;;9.10;99.90;;;;;;5037069;28;20559;-83
2021/12/17 11:17:49;;;;;;;1153.43;916.00;;;9.10;99.90;;;;;;5038846;28;20543;-83
2021/12/17 11:20:18;;;;;;;1196.80;915.20;;;9.10;99.90;;;;;;5038217;28;20473;-83
2021/12/17 11:22:49;;;;;;;1233.03;903.83;;;9.10;99.90;;;;;;5038206;28;20484;-84
2021/12/17 11:25:18;;;;;;;1198.20;899.83;;;9.20;99.90;;;;;;5038998;28;20456;-82
2021/12/17 11:27:45;;;;;;;1213.17;903.30;;;9.20;99.90;;;;;;5039350;28;20452;-83
2021/12/17 11:30:15;;;;;;;1074.07;883.00;;;9.20;99.90;;;;;;5037633;28;21050;-83
2021/12/17 11:32:44;;;;;;;1156.10;898.20;;;9.20;99.90;;;;;;5038155;28;20453;-83
2021/12/17 11:35:12;;;;;;;1160.47;901.60;;;9.20;99.90;;;;;;5038662;28;20452;-83
2021/12/17 11:37:42;;;;;;;1070.37;905.97;;;9.20;99.90;;;;;;5038852;28;20833;-83
2021/12/17 11:40:21;;;;;;;1155.87;903.40;;;9.10;99.90;;;;;;5038589;28;20536;-83
2021/12/17 11:43:14;;;;;;;1196.63;908.27;;;9.10;99.90;;;;;;5038463;28;20472;-82
2021/12/17 11:45:42;;;;;;;1148.03;903.27;;;9.10;99.90;;;;;;5037918;28;20448;-83
2021/12/17 11:48:19;;;;;;;1151.67;916.47;;;9.10;99.90;;;;;;5037836;28;20460;-83
2021/12/17 11:51:00;;;;;;;1173.70;917.20;;;9.20;99.90;;;;;;5037705;28;20483;-83
2021/12/17 11:56:04;;;;;;;1136.27;907.60;;;9.20;99.90;;;;;;5309591;23;20492;-84
2021/12/17 11:58:49;;;;;;;1174.23;915.43;;;9.10;99.90;;;;;;5020611;28;20469;-84
2021/12/17 12:01:51;;;;;;;1146.97;915.10;;;9.20;99.90;;;;;;5020932;28;20548;-86
2021/12/17 12:04:40;;;;;;;1164.10;918.20;;;9.20;99.90;;;;;;5019909;28;20453;-84
2021/12/17 12:07:08;;;;;;;1102.13;916.37;;;9.20;99.90;;;;;;5016538;28;20461;-84
2021/12/17 12:09:57;;;;;;;1177.63;904.27;;;9.20;99.90;;;;;;5020036;28;20469;-85
2021/12/17 12:12:27;;;;;;;1145.93;906.00;;;9.20;99.90;;;;;;5015445;28;21024;-84
2021/12/17 12:14:55;;;;;;;1096.00;900.80;;;9.20;99.90;;;;;;5019424;28;20869;-85
2021/12/17 12:18:01;;;;;;;1157.77;909.13;;;9.20;99.90;;;;;;5018862;28;20457;-84
2021/12/17 12:21:00;;;;;;;1218.23;904.13;;;9.20;99.90;;;;;;5016324;28;20457;-82
2021/12/17 12:23:42;;;;;;;1185.70;915.87;;;9.20;99.90;;;;;;4960934;29;20512;-81
2021/12/17 12:26:49;;;;;;;1173.70;910.90;;;9.30;99.90;;;;;;5009949;28;20473;-82
2021/12/17 12:29:21;;;;;;;1170.90;905.57;;;9.20;99.90;;;;;;5015027;28;20990;-83
2021/12/17 12:31:57;;;;;;;1212.70;923.83;;;9.30;99.90;;;;;;5014308;28;20449;-82
2021/12/17 12:34:42;;;;;;;1149.33;910.93;;;9.30;99.90;;;;;;5016489;28;20441;-82
2021/12/17 12:37:23;;;;;;;1203.47;920.17;;;9.30;99.90;;;;;;5014364;28;20452;-82
2021/12/17 12:40:15;;;;;;;1191.10;930.30;;;9.30;99.90;;;;;;5015410;28;20456;-83
2021/12/17 12:42:50;;;;;;;1167.33;936.70;;;9.30;99.90;;;;;;5016063;28;21008;-84
2021/12/17 12:45:19;;;;;;;1141.57;916.53;;;9.40;99.90;;;;;;5014945;28;20472;-84
2021/12/17 12:47:58;;;;;;;1120.50;921.23;;;9.40;99.90;;;;;;5018166;28;20457;-84
2021/12/17 12:50:27;;;;;;;1136.80;914.40;;;9.40;99.90;;;;;;5015584;28;20528;-85
2021/12/17 12:52:56;;;;;;;1128.33;926.43;;;9.40;99.90;;;;;;5018552;28;20484;-85
2021/12/17 12:55:29;;;;;;;1149.13;926.77;;;9.40;99.90;;;;;;5015551;28;20890;-85
2021/12/17 12:58:05;;;;;;;1082.23;912.90;;;9.40;99.90;;;;;;5015292;28;20469;-84
2021/12/17 13:00:36;;;;;;;1109.37;915.00;;;9.30;99.90;;;;;;5015334;28;20459;-85
2021/12/17 13:03:05;;;;;;;1081.93;908.30;;;9.40;99.90;;;;;;5015869;28;20481;-84
2021/12/17 13:05:33;;;;;;;1079.40;915.70;;;9.30;99.90;;;;;;5015453;28;20477;-84
2021/12/17 13:08:02;;;;;;;1091.77;919.77;;;9.40;99.90;;;;;;5015061;28;20457;-84
2021/12/17 13:10:31;;;;;;;1074.13;919.10;;;9.40;99.90;;;;;;5015923;28;20844;-84
2021/12/17 13:13:06;;;;;;;1022.20;908.43;;;9.40;99.90;;;;;;5015614;28;20449;-85
2021/12/17 13:15:44;;;;;;;1027.73;912.67;;;9.40;99.90;;;;;;5016997;28;20860;-84
2021/12/17 13:23:51;;;;;;;1034.63;925.57;;;9.40;99.90;;;;;;5012219;28;20841;-84
2021/12/17 13:26:20;;;;;;;1022.23;914.43;;;9.40;99.90;;;;;;5021601;28;20472;-84
2021/12/17 13:28:50;;;;;;;1015.33;914.17;;;9.40;99.90;;;;;;5021878;28;20455;-84
2021/12/17 13:31:40;;;;;;;1002.50;905.50;;;9.40;99.90;;;;;;5021788;28;20555;-85
2021/12/17 13:34:23;;;;;;;992.13;896.07;;;9.30;99.90;;;;;;5021362;28;20457;-84
2021/12/17 13:37:00;;;;;;;991.03;896.73;;;9.30;99.90;;;;;;5017784;28;20453;-84
2021/12/17 13:39:30;;;;;;;981.90;888.93;;;9.40;99.90;;;;;;5020666;28;20458;-85
2021/12/17 13:41:57;;;;;;;970.63;877.27;;;9.40;99.90;;;;;;5020693;28;20503;-84
2021/12/17 13:44:33;;;;;;;960.70;875.00;;;9.40;99.90;;;;;;5019716;28;20941;-82
2021/12/17 13:47:24;;;;;;;970.73;883.10;;;9.40;99.90;;;;;;5019766;28;20479;-84
2021/12/17 13:50:05;;;;;;;968.60;882.93;;;9.40;99.90;;;;;;5021908;28;20453;-85
2021/12/17 13:52:34;;;;;;;954.37;870.37;;;9.40;99.90;;;;;;5025569;28;20455;-84
2021/12/17 13:55:02;;;;;;;958.90;875.37;;;9.40;99.90;;;;;;5019441;28;20475;-83
2021/12/17 13:57:31;;;;;;;962.83;878.97;;;9.40;99.90;;;;;;5019195;28;20468;-83
2021/12/17 14:00:10;;;;;;;954.13;869.60;;;9.40;99.90;;;;;;5016830;28;20464;-84
2021/12/17 14:02:40;;;;;;;958.60;874.57;;;9.50;99.90;;;;;;5017548;28;20491;-83
2021/12/17 14:05:09;;;;;;;957.73;873.90;;;9.50;99.90;;;;;;5018997;28;20466;-84
2021/12/17 14:07:37;;;;;;;956.13;873.97;;;9.60;99.90;;;;;;5017144;28;20549;-84
2021/12/17 14:10:09;;;;;;;956.87;875.50;;;9.50;99.90;;;;;;5018150;28;20881;-84
2021/12/17 14:12:39;;;;;;;953.47;873.17;;;9.60;99.90;;;;;;5018364;28;20472;-84
2021/12/17 14:15:09;;;;;;;937.83;857.33;;;9.50;99.90;;;;;;5017043;28;20572;-83
2021/12/17 14:17:40;;;;;;;937.70;858.20;;;9.50;99.90;;;;;;5017015;28;20481;-84
2021/12/17 14:20:13;;;;;;;935.07;855.77;;;9.50;99.90;;;;;;5017746;28;21012;-84
2021/12/17 14:22:42;;;;;;;934.07;855.77;;;9.50;99.90;;;;;;5016814;28;20481;-83
2021/12/17 14:25:40;;;;;;;928.77;850.67;;;9.50;99.90;;;;;;5015090;28;21110;-84
2021/12/17 14:28:13;;;;;;;938.17;860.07;;;9.50;99.90;;;;;;4956054;29;20542;-84
2021/12/17 14:30:42;;;;;;;935.13;857.40;;;9.50;99.90;;;;;;5005117;28;20464;-84
2021/12/17 14:33:13;;;;;;;922.50;846.03;;;9.50;99.90;;;;;;5016013;28;20453;-84
2021/12/17 14:35:41;;;;;;;926.80;850.80;;;9.50;99.90;;;;;;5015019;28;20837;-83
2021/12/17 14:38:08;;;;;;;926.57;851.50;;;9.50;99.90;;;;;;5015552;28;20457;-84
2021/12/17 14:40:41;;;;;;;894.77;821.57;;;9.50;99.90;;;;;;5015723;28;20452;-84
2021/12/17 14:43:19;;;;;;;898.63;827.43;;;9.50;99.90;;;;;;5016188;28;20488;-83
2021/12/17 14:46:01;;;;;;;896.17;825.40;;;9.50;99.90;;;;;;5016792;28;20477;-83
2021/12/17 14:48:38;;;;;;;882.30;812.00;;;9.40;99.90;;;;;;5016203;28;20483;-84
2021/12/17 15:02:37;;;;;;;908.10;833.63;;;9.20;99.90;;;;;;5017165;28;20553;-84